createdAt,value
2022-11-24T00:02:46.696Z,100.00
2022-11-24T00:07:50.222Z,100.00
2022-11-24T00:12:53.217Z,100.00
2022-11-24T00:17:56.427Z,100.00
2022-11-24T00:22:59.413Z,100.00
2022-11-24T00:28:02.307Z,100.00
2022-11-24T00:33:06.413Z,100.00
2022-11-24T00:38:09.249Z,100.00
2022-11-24T00:43:12.553Z,100.00
2022-11-24T00:48:15.570Z,100.00
2022-11-24T00:53:18.473Z,100.00
2022-11-24T00:58:23.233Z,100.00
2022-11-24T01:03:26.126Z,100.00
2022-11-24T01:08:28.943Z,100.00
2022-11-24T01:13:31.787Z,100.00
2022-11-24T01:18:34.665Z,100.00
2022-11-24T01:23:38.056Z,100.00
2022-11-24T01:28:46.637Z,100.00
2022-11-24T01:33:50.547Z,100.00
2022-11-24T01:38:53.432Z,100.00
2022-11-24T01:43:57.422Z,100.00
2022-11-24T01:49:09.211Z,100.00
2022-11-24T01:54:35.443Z,100.00
2022-11-24T01:59:38.743Z,100.00
2022-11-24T02:04:42.752Z,100.00
2022-11-24T02:09:52.913Z,100.00
2022-11-24T02:14:56.888Z,100.00
2022-11-24T02:20:04.433Z,100.00
2022-11-24T02:25:58.580Z,100.00
2022-11-24T02:31:02.454Z,100.00
2022-11-24T02:36:05.710Z,100.00
2022-11-24T02:41:15.130Z,100.00
2022-11-24T02:46:18.038Z,100.00
2022-11-24T02:51:21.123Z,100.00
2022-11-24T02:56:25.607Z,100.00
2022-11-24T03:01:28.521Z,100.00
2022-11-24T03:06:31.500Z,100.00
2022-11-24T03:11:34.345Z,100.00
2022-11-24T03:16:37.294Z,100.00
2022-11-24T03:21:40.243Z,100.00
2022-11-24T03:26:43.187Z,100.00
2022-11-24T03:31:46.245Z,100.00
2022-11-24T03:36:49.067Z,100.00
2022-11-24T03:41:51.932Z,100.00
2022-11-24T03:46:54.952Z,100.00
2022-11-24T03:51:57.870Z,100.00
2022-11-24T03:57:00.872Z,100.00
2022-11-24T04:02:03.797Z,100.00
2022-11-24T04:07:06.732Z,100.00
2022-11-24T04:12:29.162Z,100.00
2022-11-24T04:17:32.097Z,100.00
2022-11-24T04:22:35.869Z,100.00
2022-11-24T04:27:39.359Z,100.00
2022-11-24T04:32:42.383Z,100.00
2022-11-24T04:37:45.180Z,100.00
2022-11-24T04:42:55.666Z,100.00
2022-11-24T04:47:58.604Z,100.00
2022-11-24T04:53:01.528Z,100.00
2022-11-24T04:58:04.477Z,100.00
2022-11-24T05:03:07.367Z,100.00
2022-11-24T05:08:10.234Z,100.00
2022-11-24T05:13:13.965Z,100.00
2022-11-24T05:18:16.874Z,100.00
2022-11-24T05:23:19.822Z,100.00
2022-11-24T05:28:22.727Z,100.00
2022-11-24T05:33:28.630Z,100.00
2022-11-24T05:38:33.092Z,100.00
2022-11-24T05:43:35.989Z,100.00
2022-11-24T05:48:39.152Z,100.00
2022-11-24T05:53:42.046Z,100.00
2022-11-24T05:58:45.087Z,100.00
2022-11-24T06:03:48.267Z,100.00
2022-11-24T06:08:51.165Z,100.00
2022-11-24T06:13:54.616Z,100.00
2022-11-24T06:18:57.991Z,100.00
2022-11-24T06:24:00.753Z,100.00
2022-11-24T06:29:03.978Z,100.00
2022-11-24T06:34:11.060Z,100.00
2022-11-24T06:39:13.987Z,100.00
2022-11-24T06:44:17.011Z,100.00
2022-11-24T06:49:20.150Z,100.00
2022-11-24T06:54:23.352Z,100.00
2022-11-24T06:59:27.745Z,100.00
2022-11-24T07:04:30.820Z,100.00
2022-11-24T07:09:33.698Z,100.00
2022-11-24T07:14:36.797Z,100.00
2022-11-24T07:19:40.055Z,100.00
2022-11-24T07:24:42.868Z,100.00
2022-11-24T07:29:45.775Z,100.00
2022-11-24T07:34:48.678Z,100.00
2022-11-24T07:39:51.544Z,100.00
2022-11-24T07:44:54.368Z,100.00
2022-11-24T07:49:57.499Z,99.55
2022-11-24T07:55:00.439Z,98.92
2022-11-24T08:00:05.927Z,98.12
2022-11-24T08:05:09.314Z,97.70
2022-11-24T08:10:12.309Z,97.92
2022-11-24T08:15:15.866Z,98.47
2022-11-24T08:20:19.007Z,98.60
2022-11-24T08:25:24.456Z,98.79
2022-11-24T08:30:27.911Z,96.82
2022-11-24T08:35:30.795Z,94.72
2022-11-24T08:40:33.930Z,93.29
2022-11-24T08:45:41.359Z,91.86
2022-11-24T08:50:44.881Z,90.46
2022-11-24T08:55:47.821Z,90.20
2022-11-24T09:00:50.638Z,89.56
2022-11-24T09:05:53.581Z,89.58
2022-11-24T09:11:05.761Z,88.88
2022-11-24T09:16:17.937Z,88.76
2022-11-24T09:21:21.905Z,88.22
2022-11-24T09:26:31.113Z,88.12
2022-11-24T09:31:37.193Z,87.72
2022-11-24T09:36:40.045Z,87.38
2022-11-24T09:42:06.034Z,86.09
2022-11-24T09:47:30.622Z,85.62
2022-11-24T09:52:43.245Z,85.30
2022-11-24T09:57:56.077Z,83.99
2022-11-24T10:02:59.003Z,83.42
2022-11-24T10:08:36.105Z,84.19
2022-11-24T10:14:03.068Z,84.20
2022-11-24T10:19:36.315Z,84.71
2022-11-24T10:25:07.692Z,84.62
2022-11-24T10:30:23.914Z,84.36
2022-11-24T10:35:37.649Z,83.93
2022-11-24T10:40:56.859Z,82.96
2022-11-24T10:46:09.120Z,83.44
2022-11-24T10:51:30.429Z,83.85
2022-11-24T10:56:44.911Z,84.97
2022-11-24T11:01:47.996Z,85.02
2022-11-24T11:06:51.428Z,83.75
2022-11-24T11:11:54.394Z,83.39
2022-11-24T11:16:58.136Z,83.47
2022-11-24T11:22:48.324Z,82.95
2022-11-24T11:27:51.592Z,82.48
2022-11-24T11:38:21.385Z,81.71
2022-11-24T11:43:34.467Z,81.82
2022-11-24T11:48:43.581Z,82.13
2022-11-24T11:54:16.477Z,82.11
2022-11-24T11:59:50.104Z,82.20
2022-11-24T12:05:34.182Z,82.19
2022-11-24T12:10:56.191Z,82.22
2022-11-24T12:16:14.677Z,82.69
2022-11-24T12:21:26.637Z,81.65
2022-11-24T12:26:49.331Z,81.98
2022-11-24T12:32:21.231Z,82.91
2022-11-24T12:37:47.326Z,83.97
2022-11-24T12:43:13.563Z,84.16
2022-11-24T12:48:43.071Z,84.43
2022-11-24T12:53:52.951Z,84.69
2022-11-24T12:59:13.480Z,84.81
2022-11-24T13:04:38.138Z,83.75
2022-11-24T13:10:53.524Z,83.03
2022-11-24T13:16:34.434Z,83.45
2022-11-24T13:21:32.837Z,83.78
2022-11-24T13:26:41.557Z,85.12
2022-11-24T13:31:44.769Z,85.35
2022-11-24T13:36:54.127Z,85.89
2022-11-24T13:41:57.239Z,85.45
2022-11-24T13:47:25.056Z,85.87
2022-11-24T13:52:39.847Z,85.66
2022-11-24T13:57:58.427Z,85.86
2022-11-24T14:03:22.037Z,85.75
2022-11-24T14:08:30.460Z,85.80
2022-11-24T14:13:33.626Z,85.88
2022-11-24T14:18:40.059Z,85.73
2022-11-24T14:24:33.472Z,86.00
2022-11-24T14:30:03.351Z,85.84
2022-11-24T14:35:29.210Z,86.08
2022-11-24T14:40:55.570Z,86.15
2022-11-24T14:46:09.380Z,86.52
2022-11-24T14:51:32.306Z,86.55
2022-11-24T14:56:38.198Z,86.91
2022-11-24T15:01:41.083Z,87.01
2022-11-24T15:07:26.403Z,87.59
2022-11-24T15:12:41.005Z,87.75
2022-11-24T15:17:59.276Z,88.50
2022-11-24T15:23:23.993Z,88.76
2022-11-24T15:28:27.427Z,88.80
2022-11-24T15:33:30.960Z,89.10
2022-11-24T15:38:33.972Z,89.29
2022-11-24T15:43:41.136Z,89.55
2022-11-24T15:48:43.984Z,89.66
2022-11-24T15:53:58.722Z,90.02
2022-11-24T15:59:04.711Z,89.76
2022-11-24T16:04:07.813Z,89.74
2022-11-24T16:09:16.281Z,89.83
2022-11-24T16:14:19.356Z,90.47
2022-11-24T16:19:22.391Z,90.62
2022-11-24T16:24:25.912Z,90.87
2022-11-24T16:29:28.770Z,91.31
2022-11-24T16:34:31.733Z,91.62
2022-11-24T16:39:37.282Z,92.10
2022-11-24T16:44:40.352Z,92.51
2022-11-24T16:49:43.420Z,93.17
2022-11-24T16:54:47.732Z,93.93
2022-11-24T16:59:50.632Z,94.04
2022-11-24T17:04:53.571Z,94.17
2022-11-24T17:09:56.806Z,94.51
2022-11-24T17:15:30.452Z,94.57
2022-11-24T17:20:22.816Z,94.68
2022-11-24T17:25:25.754Z,94.48
2022-11-24T17:30:28.600Z,94.36
2022-11-24T17:35:34.370Z,93.91
2022-11-24T17:40:37.205Z,93.54
2022-11-24T17:45:40.161Z,93.38
2022-11-24T17:50:43.460Z,93.08
2022-11-24T17:55:48.208Z,93.22
2022-11-24T18:00:52.171Z,93.14
2022-11-24T18:05:55.972Z,92.70
2022-11-24T18:11:27.332Z,92.35
2022-11-24T18:16:35.011Z,92.50
2022-11-24T18:21:44.809Z,92.56
2022-11-24T18:26:48.222Z,92.91
2022-11-24T18:31:51.203Z,93.17
2022-11-24T18:36:54.316Z,93.72
2022-11-24T18:41:56.961Z,93.92
2022-11-24T18:46:59.811Z,94.16
2022-11-24T18:52:02.696Z,94.34
2022-11-24T18:57:05.808Z,94.51
2022-11-24T19:02:10.860Z,94.89
2022-11-24T19:07:17.072Z,94.97
2022-11-24T19:12:20.023Z,94.78
2022-11-24T19:17:22.974Z,94.57
2022-11-24T19:22:25.811Z,94.17
2022-11-24T19:27:29.738Z,94.18
2022-11-24T19:32:32.773Z,94.05
2022-11-24T19:37:35.640Z,94.19
2022-11-24T19:42:38.598Z,94.13
2022-11-24T19:47:41.828Z,94.47
2022-11-24T19:52:44.767Z,94.75
2022-11-24T19:57:47.703Z,95.50
2022-11-24T20:02:51.113Z,96.23
2022-11-24T20:07:54.800Z,96.19
2022-11-24T20:12:57.768Z,96.63
2022-11-24T20:18:00.655Z,96.59
2022-11-24T20:23:03.832Z,96.75
2022-11-24T20:28:07.148Z,97.01
2022-11-24T20:33:10.084Z,97.25
2022-11-24T20:38:12.974Z,97.15
2022-11-24T20:43:15.945Z,97.35
2022-11-24T20:48:18.825Z,97.10
2022-11-24T20:53:21.743Z,96.75
2022-11-24T20:58:24.672Z,96.78
2022-11-24T21:03:27.587Z,96.80
2022-11-24T21:08:36.038Z,96.59
2022-11-24T21:13:43.750Z,96.42
2022-11-24T21:18:52.413Z,96.68
2022-11-24T21:23:55.256Z,96.64
2022-11-24T21:28:58.362Z,96.79
2022-11-24T21:34:01.022Z,97.00
2022-11-24T21:39:04.529Z,97.00
2022-11-24T21:44:07.761Z,97.17
2022-11-24T21:49:10.746Z,97.52
2022-11-24T21:54:13.663Z,97.59
2022-11-24T21:59:16.473Z,97.53
2022-11-24T22:04:19.372Z,97.61
2022-11-24T22:09:22.254Z,97.68
2022-11-24T22:14:25.163Z,97.36
2022-11-24T22:19:27.964Z,96.47
2022-11-24T22:24:30.819Z,95.67
2022-11-24T22:29:34.238Z,95.79
2022-11-24T22:34:37.280Z,95.91
2022-11-24T22:39:40.355Z,96.09
2022-11-24T22:44:43.259Z,96.44
2022-11-24T22:49:46.080Z,96.88
2022-11-24T22:54:49.015Z,97.09
2022-11-24T22:59:51.809Z,97.65
2022-11-24T23:04:54.798Z,97.62
2022-11-24T23:09:57.462Z,97.54
2022-11-24T23:15:00.229Z,97.92
2022-11-24T23:20:03.329Z,98.32
2022-11-24T23:25:06.763Z,98.62
2022-11-24T23:30:09.818Z,98.79
2022-11-24T23:35:14.158Z,98.88
2022-11-24T23:40:17.375Z,98.74
2022-11-24T23:45:20.246Z,98.76
2022-11-24T23:50:23.090Z,98.72
2022-11-24T23:55:26.001Z,98.76
